Time;durP1;ratioP1;P1;durP2;ratioP2;P2;SDS_P1;SDS_P2;PMS_P1;PMS_P2;Temp;Humidity;BMP_temperature;BMP_pressure;BME280_temperature;BME280_humidity;BME280_pressure;Samples;Min_cycle;Max_cycle;Signal;HPM_P1;HPM_P2
2022/03/21 00:01:19;;;;;;;0.47;0.47;;;;;;;;;;4981576;28;20069;-84
2022/03/21 00:03:45;;;;;;;0.30;0.30;;;;;;;;;;4983967;28;20041;-82
2022/03/21 00:06:11;;;;;;;0.35;0.30;;;;;;;;;;4984291;28;20076;-82
2022/03/21 00:08:37;;;;;;;0.20;0.20;;;;;;;;;;4984959;28;20034;-83
2022/03/21 00:11:03;;;;;;;0.20;0.20;;;;;;;;;;4982666;28;20437;-83
2022/03/21 00:13:30;;;;;;;0.40;0.40;;;;;;;;;;4983639;28;20022;-81
2022/03/21 00:15:56;;;;;;;0.40;0.40;;;;;;;;;;4981333;28;20045;-84
2022/03/21 00:18:23;;;;;;;0.00;0.00;;;;;;;;;;4982966;28;20027;-88
2022/03/21 00:20:50;;;;;;;1.75;0.40;;;;;;;;;;4985744;28;20046;-87
2022/03/21 00:23:17;;;;;;;0.00;0.00;;;;;;;;;;4982386;28;20628;-88
2022/03/21 00:25:43;;;;;;;0.17;0.17;;;;;;;;;;4984060;28;20121;-87
2022/03/21 00:28:10;;;;;;;0.17;0.17;;;;;;;;;;4984012;28;20042;-88
2022/03/21 00:30:37;;;;;;;0.10;0.10;;;;;;;;;;4981695;28;20789;-87
2022/03/21 00:33:04;;;;;;;0.82;0.82;;;;;;;;;;4985350;28;20039;-87
2022/03/21 00:35:30;;;;;;;0.00;0.00;;;;;;;;;;4984035;28;20041;-88
2022/03/21 00:37:57;;;;;;;0.20;0.20;;;;;;;;;;4986729;28;20062;-88
2022/03/21 00:40:26;;;;;;;0.10;0.10;;;;;;;;;;4982550;28;20135;-88
2022/03/21 00:42:53;;;;;;;0.20;0.20;;;;;;;;;;4972869;28;20042;-87
2022/03/21 00:45:21;;;;;;;0.57;0.30;;;;;;;;;;4984392;28;20030;-88
2022/03/21 00:47:47;;;;;;;0.30;0.30;;;;;;;;;;4985002;28;20482;-87
2022/03/21 00:50:14;;;;;;;0.20;0.20;;;;;;;;;;4982662;28;20037;-87
2022/03/21 00:52:40;;;;;;;;;;;;;;;;;;4977598;28;20030;-87
2022/03/21 00:55:06;;;;;;;0.47;0.47;;;;;;;;;;4981974;28;19914;-87
2022/03/21 00:57:34;;;;;;;0.20;0.20;;;;;;;;;;4983855;28;20062;-86
2022/03/21 01:00:00;;;;;;;0.43;0.43;;;;;;;;;;4985345;28;20093;-86
2022/03/21 01:02:26;;;;;;;0.82;0.82;;;;;;;;;;4984465;28;20462;-86
2022/03/21 01:04:52;;;;;;;0.22;0.20;;;;;;;;;;4983467;28;20030;-86
2022/03/21 01:07:18;;;;;;;0.37;0.37;;;;;;;;;;4979163;28;20065;-85
2022/03/21 01:09:44;;;;;;;0.60;0.60;;;;;;;;;;4979715;28;20046;-87
2022/03/21 01:12:10;;;;;;;0.00;0.00;;;;;;;;;;4984500;28;20030;-89
2022/03/21 01:39:06;;;;;;;0.00;0.00;;;;;;;;;;4983388;28;20452;-80
2022/03/21 01:41:32;;;;;;;0.10;0.10;;;;;;;;;;4982622;28;20070;-79
2022/03/21 01:44:02;;;;;;;0.07;0.07;;;;;;;;;;4983584;28;20038;-80
2022/03/21 01:49:06;;;;;;;0.00;0.00;;;;;;;;;;5444545;22;20153;-85
2022/03/21 01:51:32;;;;;;;0.30;0.30;;;;;;;;;;5018991;22;20485;-86
2022/03/21 01:56:45;;;;;;;0.15;0.15;;;;;;;;;;4977093;28;20409;-80
2022/03/21 01:59:11;;;;;;;0.00;0.00;;;;;;;;;;4980571;28;20038;-80
2022/03/21 02:01:37;;;;;;;0.25;0.25;;;;;;;;;;4981153;28;20501;-80
2022/03/21 02:04:04;;;;;;;0.50;0.50;;;;;;;;;;4979507;28;20042;-80
2022/03/21 02:06:30;;;;;;;0.00;0.00;;;;;;;;;;4979730;28;20034;-79
2022/03/21 02:08:57;;;;;;;0.22;0.22;;;;;;;;;;4979417;28;20136;-79
2022/03/21 02:11:23;;;;;;;0.43;0.43;;;;;;;;;;4977784;28;20045;-80
2022/03/21 02:13:50;;;;;;;0.22;0.22;;;;;;;;;;4980542;28;20061;-82
2022/03/21 02:16:16;;;;;;;0.40;0.37;;;;;;;;;;4996398;28;20046;-82
2022/03/21 02:18:43;;;;;;;0.67;0.30;;;;;;;;;;4979764;28;21164;-79
2022/03/21 02:21:16;;;;;;;0.13;0.13;;;;;;;;;;4980200;28;20030;-79
2022/03/21 02:24:11;;;;;;;0.22;0.22;;;;;;;;;;4987856;28;20045;-79
2022/03/21 02:26:37;;;;;;;0.57;0.30;;;;;;;;;;4975429;28;20070;-79
2022/03/21 02:29:04;;;;;;;0.00;0.00;;;;;;;;;;4983874;28;21245;-79
2022/03/21 02:31:34;;;;;;;0.20;0.20;;;;;;;;;;4984795;28;20705;-79
2022/03/21 02:34:00;;;;;;;0.10;0.10;;;;;;;;;;4983142;28;20133;-80
2022/03/21 02:36:27;;;;;;;0.30;0.25;;;;;;;;;;4982606;28;20034;-82
2022/03/21 02:38:53;;;;;;;0.10;0.10;;;;;;;;;;4981746;28;20051;-81
2022/03/21 02:41:20;;;;;;;0.10;0.10;;;;;;;;;;4983437;28;20421;-82
2022/03/21 02:43:53;;;;;;;0.00;0.00;;;;;;;;;;4983837;28;20077;-82
2022/03/21 02:46:20;;;;;;;0.50;0.25;;;;;;;;;;5000279;28;20137;-80
2022/03/21 02:48:46;;;;;;;0.10;0.10;;;;;;;;;;4983631;28;20042;-80
2022/03/21 02:51:13;;;;;;;0.10;0.10;;;;;;;;;;4982653;28;20031;-80
2022/03/21 02:53:39;;;;;;;0.00;0.00;;;;;;;;;;4982754;28;20141;-80
2022/03/21 02:56:05;;;;;;;0.00;0.00;;;;;;;;;;4983386;28;20123;-78
2022/03/21 02:58:31;;;;;;;0.03;0.03;;;;;;;;;;4984746;28;20089;-78
2022/03/21 03:01:10;;;;;;;0.20;0.20;;;;;;;;;;4983135;28;20022;-79
2022/03/21 03:03:36;;;;;;;0.00;0.00;;;;;;;;;;4981770;28;20336;-80
2022/03/21 03:06:03;;;;;;;0.10;0.10;;;;;;;;;;4989308;28;20049;-81
2022/03/21 03:08:29;;;;;;;0.10;0.10;;;;;;;;;;4986383;28;20413;-79
2022/03/21 03:10:56;;;;;;;0.00;0.00;;;;;;;;;;4990764;28;20113;-79
2022/03/21 03:13:22;;;;;;;0.20;0.20;;;;;;;;;;4987802;28;20596;-79
2022/03/21 03:15:48;;;;;;;0.00;0.00;;;;;;;;;;4990995;28;20030;-79
2022/03/21 03:18:14;;;;;;;0.22;0.22;;;;;;;;;;4984778;28;20069;-80
2022/03/21 03:20:47;;;;;;;0.88;0.75;;;;;;;;;;4986278;28;20038;-79
2022/03/21 03:23:13;;;;;;;0.00;0.00;;;;;;;;;;4980669;28;20038;-80
2022/03/21 03:25:40;;;;;;;0.13;0.13;;;;;;;;;;4998848;28;20037;-80
2022/03/21 03:28:06;;;;;;;0.20;0.20;;;;;;;;;;4982744;28;20832;-79
2022/03/21 03:30:34;;;;;;;0.00;0.00;;;;;;;;;;4983432;28;20034;-79
2022/03/21 03:33:00;;;;;;;0.00;0.00;;;;;;;;;;4996302;28;20453;-80
2022/03/21 03:35:26;;;;;;;0.10;0.10;;;;;;;;;;4965561;28;20516;-80
2022/03/21 03:37:52;;;;;;;0.20;0.20;;;;;;;;;;4981957;28;20141;-80
2022/03/21 03:40:19;;;;;;;0.23;0.23;;;;;;;;;;4982341;28;20108;-80
2022/03/21 03:42:46;;;;;;;;;;;;;;;;;;4981265;28;20030;-80
2022/03/21 03:45:13;;;;;;;0.22;0.20;;;;;;;;;;4982453;28;19920;-80
2022/03/21 03:47:39;;;;;;;0.10;0.10;;;;;;;;;;4982237;28;20034;-80
2022/03/21 03:50:05;;;;;;;0.08;0.08;;;;;;;;;;4982907;28;20497;-80
2022/03/21 03:52:31;;;;;;;0.10;0.10;;;;;;;;;;4984384;28;20069;-80
2022/03/21 03:54:57;;;;;;;0.50;0.30;;;;;;;;;;4983121;28;20062;-80
2022/03/21 03:57:23;;;;;;;0.10;0.10;;;;;;;;;;4981984;28;20109;-80
2022/03/21 03:59:50;;;;;;;0.60;0.53;;;;;;;;;;4982109;28;20189;-80
2022/03/21 04:02:16;;;;;;;0.00;0.00;;;;;;;;;;4981657;28;20129;-80
2022/03/21 04:04:42;;;;;;;0.10;0.10;;;;;;;;;;4980036;28;20043;-80
2022/03/21 04:07:08;;;;;;;0.10;0.10;;;;;;;;;;4983105;28;20057;-80
2022/03/21 04:09:34;;;;;;;0.20;0.20;;;;;;;;;;4981661;28;20046;-80
2022/03/21 04:12:02;;;;;;;0.17;0.17;;;;;;;;;;4982330;28;20113;-80
2022/03/21 04:14:28;;;;;;;0.10;0.10;;;;;;;;;;4981922;28;20026;-81
2022/03/21 04:16:54;;;;;;;0.07;0.07;;;;;;;;;;4983032;28;20044;-80
2022/03/21 04:19:21;;;;;;;0.00;0.00;;;;;;;;;;4984231;28;20368;-80
2022/03/21 04:21:47;;;;;;;0.15;0.15;;;;;;;;;;4983149;28;20034;-82
2022/03/21 04:24:13;;;;;;;0.10;0.10;;;;;;;;;;4981797;28;20054;-80
2022/03/21 04:26:39;;;;;;;0.10;0.10;;;;;;;;;;4982728;28;20041;-80
2022/03/21 04:29:05;;;;;;;0.10;0.10;;;;;;;;;;4982109;28;20513;-80
2022/03/21 04:31:32;;;;;;;0.00;0.00;;;;;;;;;;4985191;28;20022;-80
2022/03/21 04:33:58;;;;;;;0.20;0.20;;;;;;;;;;4981739;28;20072;-80
2022/03/21 04:36:24;;;;;;;0.10;0.10;;;;;;;;;;4981851;28;20037;-80
2022/03/21 04:38:51;;;;;;;0.13;0.10;;;;;;;;;;4982250;28;20328;-80
2022/03/21 04:41:17;;;;;;;0.30;0.30;;;;;;;;;;4980875;28;20501;-79
2022/03/21 04:43:43;;;;;;;0.10;0.10;;;;;;;;;;4983274;28;20053;-82
2022/03/21 04:46:09;;;;;;;0.50;0.50;;;;;;;;;;4982589;28;20030;-81
2022/03/21 04:48:35;;;;;;;0.10;0.10;;;;;;;;;;4981216;28;20777;-81
2022/03/21 04:51:01;;;;;;;0.03;0.03;;;;;;;;;;4981166;28;20125;-83
2022/03/21 04:53:27;;;;;;;0.20;0.20;;;;;;;;;;4981971;28;20533;-83
2022/03/21 04:55:53;;;;;;;0.10;0.10;;;;;;;;;;4980907;28;20028;-80
2022/03/21 04:58:19;;;;;;;0.10;0.10;;;;;;;;;;4996456;28;22444;-79
2022/03/21 05:00:45;;;;;;;0.00;0.00;;;;;;;;;;4981160;28;20274;-80
2022/03/21 05:03:11;;;;;;;0.00;0.00;;;;;;;;;;4980400;28;20077;-81
2022/03/21 05:05:38;;;;;;;0.15;0.15;;;;;;;;;;4981691;28;20027;-80
2022/03/21 05:08:04;;;;;;;0.00;0.00;;;;;;;;;;4981595;28;20038;-88
2022/03/21 05:10:32;;;;;;;0.00;0.00;;;;;;;;;;4996859;28;20034;-87
2022/03/21 05:12:58;;;;;;;;;;;;;;;;;;4981340;28;20148;-86
2022/03/21 05:15:24;;;;;;;0.00;0.00;;;;;;;;;;4979208;28;19914;-86
2022/03/21 05:17:53;;;;;;;0.00;0.00;;;;;;;;;;4995244;28;20563;-85
2022/03/21 05:20:21;;;;;;;0.00;0.00;;;;;;;;;;4979276;28;20030;-85
2022/03/21 05:31:03;;;;;;;0.10;0.10;;;;;;;;;;4983121;28;20053;-88
2022/03/21 05:36:15;;;;;;;0.08;0.08;;;;;;;;;;4981651;28;20080;-82
2022/03/21 05:38:41;;;;;;;0.10;0.10;;;;;;;;;;4979829;28;20026;-83
2022/03/21 05:41:07;;;;;;;0.10;0.10;;;;;;;;;;4980212;28;20030;-83
2022/03/21 05:43:33;;;;;;;0.10;0.10;;;;;;;;;;4981653;28;20050;-84
2022/03/21 05:46:00;;;;;;;0.00;0.00;;;;;;;;;;4980010;28;20548;-84
2022/03/21 05:51:12;;;;;;;0.10;0.10;;;;;;;;;;4979504;28;19936;-83
2022/03/21 05:53:38;;;;;;;0.10;0.10;;;;;;;;;;4981382;28;20053;-85
2022/03/21 05:56:04;;;;;;;0.10;0.10;;;;;;;;;;4979243;28;20128;-84
2022/03/21 05:58:31;;;;;;;0.60;0.35;;;;;;;;;;4996062;28;20030;-84
2022/03/21 06:00:57;;;;;;;0.00;0.00;;;;;;;;;;4981691;28;20057;-89
2022/03/21 06:03:24;;;;;;;0.10;0.10;;;;;;;;;;4984685;28;20057;-89
2022/03/21 06:05:50;;;;;;;0.10;0.10;;;;;;;;;;4982589;28;20707;-91
2022/03/21 06:08:16;;;;;;;0.10;0.10;;;;;;;;;;4979566;28;20035;-77
2022/03/21 06:10:42;;;;;;;0.30;0.30;;;;;;;;;;4978947;28;20121;-78
2022/03/21 06:13:09;;;;;;;0.00;0.00;;;;;;;;;;4977891;28;20034;-78
2022/03/21 06:15:35;;;;;;;0.10;0.10;;;;;;;;;;4978295;28;20045;-78
2022/03/21 06:18:02;;;;;;;0.10;0.10;;;;;;;;;;4979437;28;20425;-84
2022/03/21 06:20:28;;;;;;;0.00;0.00;;;;;;;;;;4979657;28;20034;-82
2022/03/21 06:22:55;;;;;;;0.10;0.10;;;;;;;;;;4978666;28;20048;-83
2022/03/21 06:25:21;;;;;;;0.10;0.10;;;;;;;;;;4995959;28;20104;-81
2022/03/21 06:27:48;;;;;;;0.10;0.10;;;;;;;;;;4979745;28;20113;-85
2022/03/21 06:30:14;;;;;;;0.00;0.00;;;;;;;;;;4979375;28;20034;-80
2022/03/21 06:32:41;;;;;;;0.00;0.00;;;;;;;;;;4980267;28;20165;-79
2022/03/21 06:35:09;;;;;;;0.00;0.00;;;;;;;;;;4981347;28;20041;-80
2022/03/21 06:37:35;;;;;;;0.10;0.10;;;;;;;;;;4978770;28;20034;-77
2022/03/21 06:40:01;;;;;;;0.00;0.00;;;;;;;;;;4977928;28;20034;-79
2022/03/21 06:42:27;;;;;;;0.10;0.10;;;;;;;;;;4976966;28;20034;-81
2022/03/21 06:44:53;;;;;;;0.10;0.10;;;;;;;;;;4978715;28;20293;-82
2022/03/21 06:47:20;;;;;;;0.08;0.08;;;;;;;;;;4980303;28;20089;-79
2022/03/21 06:49:47;;;;;;;0.00;0.00;;;;;;;;;;4978159;28;20035;-80
2022/03/21 06:52:13;;;;;;;0.00;0.00;;;;;;;;;;4980431;28;20113;-80
2022/03/21 06:54:41;;;;;;;0.10;0.10;;;;;;;;;;4982708;28;20763;-82
2022/03/21 06:57:07;;;;;;;0.10;0.10;;;;;;;;;;4980791;28;20433;-80
2022/03/21 06:59:34;;;;;;;0.10;0.10;;;;;;;;;;4981919;28;20034;-80
2022/03/21 07:02:00;;;;;;;;;;;;;;;;;;4980789;28;20038;-80
2022/03/21 07:04:26;;;;;;;0.00;0.00;;;;;;;;;;4982723;28;20256;-80
2022/03/21 07:06:53;;;;;;;0.13;0.13;;;;;;;;;;4982037;28;20042;-80
2022/03/21 07:09:19;;;;;;;0.10;0.10;;;;;;;;;;4983960;28;20097;-80
2022/03/21 07:11:46;;;;;;;0.20;0.20;;;;;;;;;;4983696;28;20030;-80
2022/03/21 07:14:12;;;;;;;0.08;0.08;;;;;;;;;;4982776;28;20097;-81
2022/03/21 07:16:38;;;;;;;0.20;0.20;;;;;;;;;;4986864;28;20081;-80
2022/03/21 07:19:06;;;;;;;0.20;0.20;;;;;;;;;;4984397;28;20042;-80
2022/03/21 07:21:32;;;;;;;0.00;0.00;;;;;;;;;;4983838;28;20035;-81
2022/03/21 07:23:58;;;;;;;0.10;0.10;;;;;;;;;;4984256;28;20042;-80
2022/03/21 07:26:24;;;;;;;0.10;0.10;;;;;;;;;;4984186;28;20058;-81
2022/03/21 07:28:50;;;;;;;0.10;0.10;;;;;;;;;;4985805;28;20041;-80
2022/03/21 07:31:16;;;;;;;0.10;0.10;;;;;;;;;;4985908;28;20096;-80
2022/03/21 07:33:42;;;;;;;0.00;0.00;;;;;;;;;;4981655;28;20097;-80
2022/03/21 07:36:09;;;;;;;0.07;0.07;;;;;;;;;;4986133;28;20058;-80
2022/03/21 07:38:35;;;;;;;;;;;;;;;;;;4983071;28;20034;-79
2022/03/21 07:41:02;;;;;;;0.30;0.30;;;;;;;;;;4985255;28;19918;-80
2022/03/21 07:43:28;;;;;;;0.43;0.43;;;;;;;;;;4989003;28;20830;-81
2022/03/21 07:48:39;;;;;;;0.00;0.00;;;;;;;;;;4993929;28;20049;-81
2022/03/21 07:51:05;;;;;;;0.43;0.43;;;;;;;;;;4984655;28;20069;-80
2022/03/21 07:53:32;;;;;;;0.13;0.07;;;;;;;;;;4981784;28;20055;-80
2022/03/21 07:55:59;;;;;;;0.10;0.10;;;;;;;;;;4983793;28;20273;-80
2022/03/21 07:58:26;;;;;;;0.10;0.10;;;;;;;;;;5000317;28;20045;-80
2022/03/21 08:00:52;;;;;;;0.10;0.10;;;;;;;;;;4982962;28;20057;-80
2022/03/21 08:03:18;;;;;;;0.20;0.20;;;;;;;;;;4982991;28;20854;-80
2022/03/21 08:05:44;;;;;;;0.20;0.20;;;;;;;;;;4984243;28;20129;-80
2022/03/21 08:08:10;;;;;;;0.10;0.10;;;;;;;;;;4983942;28;20046;-80
2022/03/21 08:10:36;;;;;;;0.30;0.30;;;;;;;;;;4985073;28;20273;-80
2022/03/21 08:13:02;;;;;;;0.10;0.10;;;;;;;;;;4982861;28;20073;-80
2022/03/21 08:15:28;;;;;;;0.10;0.10;;;;;;;;;;4977993;28;20030;-81
2022/03/21 08:18:03;;;;;;;0.10;0.10;;;;;;;;;;4983271;28;20114;-80
2022/03/21 08:20:35;;;;;;;0.10;0.10;;;;;;;;;;4981923;28;20502;-80
2022/03/21 08:23:08;;;;;;;0.45;0.45;;;;;;;;;;4981821;28;20133;-80
2022/03/21 08:25:35;;;;;;;0.05;0.05;;;;;;;;;;4983944;28;20049;-80
2022/03/21 08:28:01;;;;;;;;;;;;;;;;;;4982170;28;20063;-80
2022/03/21 08:30:32;;;;;;;0.30;0.30;;;;;;;;;;4979516;28;20150;-80
2022/03/21 08:32:58;;;;;;;0.08;0.08;;;;;;;;;;4982760;28;20063;-80
2022/03/21 08:35:24;;;;;;;0.10;0.10;;;;;;;;;;4980430;28;20150;-80
2022/03/21 08:37:50;;;;;;;1.45;0.98;;;;;;;;;;4979062;28;20789;-80
2022/03/21 08:40:17;;;;;;;0.20;0.20;;;;;;;;;;4996565;28;20070;-80
2022/03/21 08:42:43;;;;;;;0.20;0.20;;;;;;;;;;4981843;28;20086;-80
2022/03/21 08:45:10;;;;;;;0.52;0.52;;;;;;;;;;4982000;28;20524;-79
2022/03/21 08:47:37;;;;;;;0.20;0.20;;;;;;;;;;4982014;28;20041;-80
2022/03/21 08:50:03;;;;;;;0.40;0.40;;;;;;;;;;4980722;28;20051;-80
2022/03/21 08:52:30;;;;;;;0.17;0.17;;;;;;;;;;4997702;28;20049;-80
2022/03/21 08:54:56;;;;;;;0.45;0.45;;;;;;;;;;4980416;28;20034;-80
2022/03/21 08:57:23;;;;;;;0.30;0.30;;;;;;;;;;4981572;28;20026;-79
2022/03/21 08:59:52;;;;;;;0.20;0.20;;;;;;;;;;4981897;28;20034;-80
2022/03/21 09:02:18;;;;;;;0.47;0.47;;;;;;;;;;4982821;28;20038;-80
2022/03/21 09:04:45;;;;;;;0.10;0.10;;;;;;;;;;4983894;28;20038;-80
2022/03/21 09:07:13;;;;;;;0.43;0.32;;;;;;;;;;4998012;28;20096;-80
2022/03/21 09:09:39;;;;;;;0.13;0.13;;;;;;;;;;4981746;28;20034;-80
2022/03/21 09:12:05;;;;;;;0.30;0.30;;;;;;;;;;4980856;28;20034;-80
2022/03/21 09:14:31;;;;;;;0.35;0.35;;;;;;;;;;4981971;28;20035;-80
2022/03/21 09:16:57;;;;;;;0.30;0.30;;;;;;;;;;4981249;28;20038;-80
2022/03/21 09:19:24;;;;;;;0.10;0.10;;;;;;;;;;4982261;28;20086;-80
2022/03/21 09:21:51;;;;;;;0.35;0.30;;;;;;;;;;4981205;28;20038;-80
2022/03/21 09:24:17;;;;;;;0.30;0.25;;;;;;;;;;4981186;28;20046;-80
2022/03/21 09:26:43;;;;;;;0.67;0.50;;;;;;;;;;4980542;28;20572;-80
2022/03/21 09:29:09;;;;;;;0.83;0.70;;;;;;;;;;4981428;28;20038;-80
2022/03/21 09:31:40;;;;;;;0.63;0.63;;;;;;;;;;4997827;28;20117;-80
2022/03/21 09:34:06;;;;;;;1.67;1.58;;;;;;;;;;4982399;28;20049;-80
2022/03/21 09:36:32;;;;;;;0.28;0.22;;;;;;;;;;4981438;28;20026;-80
2022/03/21 09:38:58;;;;;;;3.35;0.63;;;;;;;;;;4982005;28;20092;-80
2022/03/21 09:41:29;;;;;;;0.40;0.40;;;;;;;;;;4980468;28;20033;-80
2022/03/21 09:43:56;;;;;;;0.40;0.38;;;;;;;;;;4980927;28;20306;-80
2022/03/21 09:46:23;;;;;;;0.68;0.47;;;;;;;;;;4996107;28;20030;-80
2022/03/21 09:48:49;;;;;;;0.95;0.95;;;;;;;;;;4979492;28;20032;-80
2022/03/21 09:51:23;;;;;;;0.20;0.20;;;;;;;;;;4981544;28;20117;-80
2022/03/21 09:53:49;;;;;;;0.93;0.35;;;;;;;;;;4980847;28;20142;-80
2022/03/21 09:56:16;;;;;;;0.68;0.68;;;;;;;;;;4978894;28;20521;-80
2022/03/21 09:58:43;;;;;;;0.90;0.38;;;;;;;;;;4982691;28;20034;-80
2022/03/21 10:01:11;;;;;;;0.85;0.85;;;;;;;;;;4980876;28;20045;-80
2022/03/21 10:03:37;;;;;;;0.60;0.50;;;;;;;;;;4980746;28;20046;-80
2022/03/21 10:06:23;;;;;;;0.13;0.13;;;;;;;;;;4980436;28;20061;-81
2022/03/21 10:08:49;;;;;;;0.30;0.30;;;;;;;;;;4981222;28;20030;-87
2022/03/21 10:11:22;;;;;;;1.17;0.75;;;;;;;;;;4983583;28;20772;-87
2022/03/21 10:13:48;;;;;;;0.68;0.60;;;;;;;;;;4983554;28;20412;-87
2022/03/21 10:16:15;;;;;;;0.77;0.50;;;;;;;;;;4997337;28;20406;-87
2022/03/21 10:18:54;;;;;;;0.22;0.22;;;;;;;;;;4981567;28;20517;-88
2022/03/21 10:21:21;;;;;;;0.20;0.20;;;;;;;;;;4981891;28;20062;-88
2022/03/21 10:24:02;;;;;;;0.80;0.80;;;;;;;;;;4981157;28;20046;-88
2022/03/21 10:26:32;;;;;;;0.50;0.50;;;;;;;;;;4981875;28;20049;-87
2022/03/21 10:28:59;;;;;;;1.17;0.70;;;;;;;;;;4982573;28;20030;-88
2022/03/21 10:31:35;;;;;;;0.70;0.70;;;;;;;;;;4997838;28;20905;-88
2022/03/21 10:34:02;;;;;;;0.10;0.10;;;;;;;;;;4982531;28;20034;-88
2022/03/21 10:36:28;;;;;;;0.30;0.30;;;;;;;;;;4981589;28;20129;-87
2022/03/21 10:39:06;;;;;;;0.50;0.50;;;;;;;;;;4981109;28;20082;-87
2022/03/21 10:41:36;;;;;;;1.40;0.70;;;;;;;;;;4981305;28;20285;-87
2022/03/21 10:44:06;;;;;;;0.35;0.35;;;;;;;;;;4984354;28;20509;-89
2022/03/21 10:46:33;;;;;;;0.68;0.68;;;;;;;;;;4986201;28;20038;-86
2022/03/21 10:49:22;;;;;;;0.40;0.40;;;;;;;;;;4984959;28;20709;-88
2022/03/21 10:51:53;;;;;;;0.60;0.60;;;;;;;;;;4984995;28;20096;-87
2022/03/21 10:54:38;;;;;;;0.52;0.52;;;;;;;;;;4984977;28;20047;-89
2022/03/21 10:57:05;;;;;;;0.88;0.88;;;;;;;;;;4985031;28;20037;-87
2022/03/21 10:59:32;;;;;;;0.20;0.20;;;;;;;;;;4985305;28;20037;-87
2022/03/21 11:02:11;;;;;;;0.10;0.10;;;;;;;;;;4986747;28;20030;-88
2022/03/21 11:04:38;;;;;;;0.20;0.20;;;;;;;;;;4986176;28;20088;-87
2022/03/21 11:07:05;;;;;;;30.02;1.45;;;;;;;;;;4984900;28;20035;-88
2022/03/21 11:09:32;;;;;;;0.52;0.52;;;;;;;;;;4985292;28;20096;-88
2022/03/21 11:12:00;;;;;;;0.45;0.45;;;;;;;;;;4984849;28;20065;-88
2022/03/21 11:14:26;;;;;;;0.40;0.35;;;;;;;;;;4985850;28;20132;-88
2022/03/21 11:16:53;;;;;;;2.10;0.52;;;;;;;;;;4984655;28;20042;-88
2022/03/21 11:19:19;;;;;;;0.20;0.20;;;;;;;;;;4985806;28;20783;-89
2022/03/21 11:21:46;;;;;;;1.13;0.77;;;;;;;;;;4984625;28;20030;-88
2022/03/21 11:24:12;;;;;;;0.30;0.30;;;;;;;;;;4984590;28;20305;-88
2022/03/21 11:26:47;;;;;;;1.23;1.13;;;;;;;;;;4986445;28;20109;-88
2022/03/21 11:29:32;;;;;;;0.10;0.10;;;;;;;;;;4981361;28;20037;-87
2022/03/21 11:32:17;;;;;;;0.40;0.40;;;;;;;;;;4986243;28;20031;-88
2022/03/21 11:34:47;;;;;;;0.20;0.20;;;;;;;;;;4988016;28;20630;-88
2022/03/21 11:37:40;;;;;;;0.22;0.22;;;;;;;;;;4984412;28;20052;-89
2022/03/21 11:40:25;;;;;;;0.10;0.10;;;;;;;;;;4984483;28;20034;-88
2022/03/21 11:42:51;;;;;;;0.35;0.35;;;;;;;;;;4983903;28;20195;-89
2022/03/21 11:45:29;;;;;;;0.90;0.90;;;;;;;;;;4985880;28;20039;-89
2022/03/21 11:48:13;;;;;;;1.80;1.70;;;;;;;;;;4984990;28;20169;-88
2022/03/21 11:50:39;;;;;;;0.63;0.40;;;;;;;;;;4983153;28;20074;-88
2022/03/21 11:53:07;;;;;;;0.40;0.40;;;;;;;;;;4983709;28;20050;-88
2022/03/21 11:55:37;;;;;;;0.63;0.63;;;;;;;;;;4984356;28;20034;-89
2022/03/21 11:58:22;;;;;;;0.32;0.32;;;;;;;;;;4985219;28;20038;-88
2022/03/21 12:01:07;;;;;;;48.88;4.88;;;;;;;;;;4984230;28;20041;-89
2022/03/21 12:03:33;;;;;;;1.15;1.10;;;;;;;;;;4984491;28;20046;-88
2022/03/21 12:06:19;;;;;;;0.82;0.82;;;;;;;;;;4985153;28;20034;-89
2022/03/21 12:08:48;;;;;;;2.15;0.95;;;;;;;;;;4984756;28;20173;-89
2022/03/21 12:11:33;;;;;;;0.55;0.55;;;;;;;;;;4984514;28;20409;-88
2022/03/21 12:14:19;;;;;;;0.43;0.43;;;;;;;;;;5001413;28;20091;-88
2022/03/21 12:16:45;;;;;;;0.25;0.25;;;;;;;;;;4987064;28;20030;-87
2022/03/21 12:19:11;;;;;;;1.10;1.03;;;;;;;;;;4969036;28;20045;-89
2022/03/21 12:21:37;;;;;;;1.40;0.97;;;;;;;;;;4985361;28;20026;-89
2022/03/21 12:24:21;;;;;;;1.02;0.40;;;;;;;;;;4986319;28;20065;-88
2022/03/21 12:26:48;;;;;;;3.30;1.00;;;;;;;;;;5000260;28;20129;-89
2022/03/21 12:29:33;;;;;;;0.73;0.70;;;;;;;;;;4985882;28;20479;-89
2022/03/21 12:32:18;;;;;;;0.95;0.85;;;;;;;;;;4982998;28;20815;-88
2022/03/21 12:34:44;;;;;;;1.33;1.23;;;;;;;;;;4995700;28;20023;-88
2022/03/21 12:37:40;;;;;;;0.80;0.80;;;;;;;;;;4967887;28;20034;-88
2022/03/21 12:40:09;;;;;;;0.20;0.20;;;;;;;;;;4984493;28;20437;-88
2022/03/21 12:42:36;;;;;;;0.45;0.45;;;;;;;;;;4993799;28;20576;-89
2022/03/21 12:45:02;;;;;;;1.05;0.77;;;;;;;;;;4967157;28;20084;-88
2022/03/21 12:47:28;;;;;;;0.77;0.77;;;;;;;;;;4982349;28;20058;-88
2022/03/21 12:49:55;;;;;;;0.50;0.50;;;;;;;;;;4984245;28;20125;-88
2022/03/21 12:52:28;;;;;;;0.40;0.40;;;;;;;;;;4998475;28;20044;-89
2022/03/21 12:54:55;;;;;;;0.82;0.68;;;;;;;;;;4983573;28;20045;-87
2022/03/21 12:57:21;;;;;;;0.77;0.77;;;;;;;;;;4984535;28;20498;-87
2022/03/21 12:59:48;;;;;;;8.45;1.75;;;;;;;;;;4983735;28;20473;-88
2022/03/21 13:02:24;;;;;;;0.60;0.60;;;;;;;;;;4983302;28;20176;-88
2022/03/21 13:10:33;;;;;;;2.15;1.25;;;;;;;;;;4983819;28;20124;-81
2022/03/21 13:13:00;;;;;;;0.80;0.80;;;;;;;;;;4982780;28;20030;-80
2022/03/21 13:15:27;;;;;;;1.85;0.85;;;;;;;;;;4982687;28;20042;-80
2022/03/21 13:18:02;;;;;;;0.47;0.47;;;;;;;;;;4981002;28;20513;-81
2022/03/21 13:20:31;;;;;;;0.95;0.95;;;;;;;;;;4981645;28;20030;-81
2022/03/21 13:22:58;;;;;;;1.98;0.68;;;;;;;;;;4982056;28;20045;-81
2022/03/21 13:25:37;;;;;;;0.30;0.30;;;;;;;;;;4982121;28;20109;-80
2022/03/21 13:28:07;;;;;;;1.05;0.95;;;;;;;;;;4981730;28;20184;-81
2022/03/21 13:30:34;;;;;;;0.95;0.30;;;;;;;;;;4981313;28;20425;-81
2022/03/21 13:33:00;;;;;;;0.30;0.30;;;;;;;;;;4982330;28;20048;-81
2022/03/21 13:35:26;;;;;;;1.75;1.30;;;;;;;;;;4980776;28;20113;-81
2022/03/21 13:38:02;;;;;;;1.00;0.87;;;;;;;;;;4982573;28;20045;-81
2022/03/21 13:40:29;;;;;;;1.17;0.50;;;;;;;;;;4997265;28;20813;-81
2022/03/21 13:42:55;;;;;;;0.57;0.57;;;;;;;;;;4982176;28;20500;-81
2022/03/21 13:45:22;;;;;;;1.33;1.23;;;;;;;;;;4981482;28;20034;-81
2022/03/21 13:47:49;;;;;;;1.02;1.02;;;;;;;;;;4977515;28;20572;-80
2022/03/21 13:50:15;;;;;;;;;;;;;;;;;;4989333;28;20034;-81
2022/03/21 13:52:47;;;;;;;0.68;0.68;;;;;;;;;;4999428;28;19932;-81
2022/03/21 13:55:18;;;;;;;1.33;0.93;;;;;;;;;;4980605;28;20046;-81
2022/03/21 13:57:44;;;;;;;0.55;0.47;;;;;;;;;;4982869;28;20121;-81
2022/03/21 14:00:10;;;;;;;0.30;0.30;;;;;;;;;;4982156;28;20084;-81
2022/03/21 14:02:46;;;;;;;2.05;1.25;;;;;;;;;;4983235;28;20096;-81
2022/03/21 14:05:18;;;;;;;0.82;0.82;;;;;;;;;;4981667;28;20042;-81
2022/03/21 14:07:44;;;;;;;1.02;0.85;;;;;;;;;;4980942;28;20041;-81
2022/03/21 14:10:14;;;;;;;14.18;4.20;;;;;;;;;;4982295;28;20391;-81
2022/03/21 14:12:41;;;;;;;0.32;0.32;;;;;;;;;;4982041;28;20077;-81
2022/03/21 14:15:07;;;;;;;;;;;;;;;;;;4982795;28;20042;-81
2022/03/21 14:17:33;;;;;;;0.15;0.15;;;;;;;;;;4981743;28;20308;-81
2022/03/21 14:19:59;;;;;;;0.20;0.20;;;;;;;;;;4982044;28;20046;-81
2022/03/21 14:22:25;;;;;;;0.75;0.75;;;;;;;;;;4983782;28;20601;-81
2022/03/21 14:24:51;;;;;;;0.60;0.50;;;;;;;;;;4982026;28;20050;-80
2022/03/21 14:27:18;;;;;;;8.70;1.37;;;;;;;;;;4982070;28;20818;-81
2022/03/21 14:29:44;;;;;;;1.92;1.23;;;;;;;;;;4983544;28;20085;-81
2022/03/21 14:32:10;;;;;;;1.35;0.95;;;;;;;;;;4996255;28;20035;-81
2022/03/21 14:34:36;;;;;;;0.40;0.40;;;;;;;;;;4983683;28;20041;-81
2022/03/21 14:37:02;;;;;;;10.53;1.97;;;;;;;;;;4981533;28;20287;-80
2022/03/21 14:39:28;;;;;;;0.10;0.10;;;;;;;;;;4980661;28;20482;-80
2022/03/21 14:41:54;;;;;;;0.30;0.30;;;;;;;;;;4981028;28;20026;-80
2022/03/21 14:44:22;;;;;;;0.43;0.40;;;;;;;;;;4980175;28;20046;-81
2022/03/21 14:46:48;;;;;;;1.92;1.48;;;;;;;;;;4983249;28;20331;-80
2022/03/21 14:49:14;;;;;;;0.30;0.30;;;;;;;;;;4981743;28;20058;-81
2022/03/21 14:51:41;;;;;;;2.13;1.93;;;;;;;;;;4982697;28;20026;-81
2022/03/21 14:54:07;;;;;;;2.00;1.47;;;;;;;;;;4980316;28;20563;-81
2022/03/21 14:56:33;;;;;;;0.60;0.60;;;;;;;;;;4981242;28;20281;-81
2022/03/21 14:58:59;;;;;;;0.88;0.88;;;;;;;;;;4982342;28;20042;-81
2022/03/21 15:01:26;;;;;;;1.83;1.03;;;;;;;;;;4982680;28;20065;-81
2022/03/21 15:03:52;;;;;;;0.60;0.60;;;;;;;;;;4980159;28;20301;-81
2022/03/21 15:06:18;;;;;;;0.73;0.40;;;;;;;;;;4980378;28;20046;-87
2022/03/21 15:08:44;;;;;;;0.75;0.73;;;;;;;;;;4981695;28;20038;-81
2022/03/21 15:11:11;;;;;;;0.40;0.40;;;;;;;;;;4981131;28;20042;-81
2022/03/21 15:13:38;;;;;;;1.58;1.45;;;;;;;;;;4998360;28;20085;-81
2022/03/21 15:16:04;;;;;;;0.82;0.73;;;;;;;;;;4980950;28;20509;-80
2022/03/21 15:18:30;;;;;;;0.40;0.40;;;;;;;;;;4981609;28;20114;-81
2022/03/21 15:20:56;;;;;;;0.70;0.70;;;;;;;;;;4982033;28;20030;-80
2022/03/21 15:23:22;;;;;;;0.40;0.40;;;;;;;;;;4980419;28;20290;-81
2022/03/21 15:25:50;;;;;;;10.10;1.13;;;;;;;;;;4981303;28;20038;-81
2022/03/21 15:28:16;;;;;;;3.47;1.05;;;;;;;;;;4996340;28;20065;-81
2022/03/21 15:30:46;;;;;;;3.37;2.10;;;;;;;;;;4981138;28;20121;-81
2022/03/21 15:33:12;;;;;;;0.57;0.57;;;;;;;;;;4984668;28;20638;-81
2022/03/21 15:35:38;;;;;;;0.80;0.80;;;;;;;;;;4984721;28;20034;-81
2022/03/21 15:43:33;;;;;;;0.40;0.40;;;;;;;;;;4985633;28;20129;-80
2022/03/21 15:46:02;;;;;;;0.70;0.70;;;;;;;;;;4983297;28;20176;-81
2022/03/21 15:48:28;;;;;;;1.95;0.55;;;;;;;;;;4984803;28;20405;-81